createdAt,value
2017-11-13T00:00:46.418Z,15.23
2017-11-13T00:03:14.422Z,15.23
2017-11-13T00:05:42.013Z,14.20
2017-11-13T00:08:09.645Z,16.10
2017-11-13T00:10:37.338Z,14.73
2017-11-13T00:13:04.996Z,14.60
2017-11-13T00:15:32.640Z,15.40
2017-11-13T00:18:00.265Z,17.43
2017-11-13T00:20:27.982Z,14.47
2017-11-13T00:22:55.933Z,14.40
2017-11-13T00:25:23.542Z,13.50
2017-11-13T00:27:51.171Z,12.80
2017-11-13T00:30:19.125Z,13.10
2017-11-13T00:32:47.096Z,13.50
2017-11-13T00:35:14.728Z,12.00
2017-11-13T00:37:42.316Z,12.03
2017-11-13T00:40:09.935Z,12.50
2017-11-13T00:42:37.551Z,11.77
2017-11-13T00:45:05.212Z,11.93
2017-11-13T00:47:32.794Z,11.27
2017-11-13T00:50:00.436Z,12.00
2017-11-13T00:52:28.093Z,11.80
2017-11-13T00:54:55.967Z,11.50
2017-11-13T00:57:23.587Z,11.63
2017-11-13T00:59:51.180Z,12.03
2017-11-13T01:02:18.825Z,11.57
2017-11-13T01:04:46.452Z,11.20
2017-11-13T01:07:14.074Z,11.80
2017-11-13T01:09:41.723Z,11.00
2017-11-13T01:12:09.307Z,10.83
2017-11-13T01:14:36.942Z,11.10
2017-11-13T01:17:04.574Z,10.93
2017-11-13T01:19:32.180Z,11.00
2017-11-13T01:21:59.795Z,11.40
2017-11-13T01:24:27.385Z,11.53
2017-11-13T01:26:54.977Z,11.70
2017-11-13T01:29:22.604Z,11.47
2017-11-13T01:31:50.245Z,10.77
2017-11-13T01:34:17.873Z,11.50
2017-11-13T01:36:45.548Z,11.93
2017-11-13T01:39:13.197Z,11.90
2017-11-13T01:41:40.810Z,12.50
2017-11-13T01:44:08.427Z,11.40
2017-11-13T01:46:36.070Z,11.33
2017-11-13T01:49:03.667Z,11.80
2017-11-13T01:51:31.314Z,11.67
2017-11-13T01:53:58.971Z,11.43
2017-11-13T01:56:26.562Z,11.60
2017-11-13T01:58:54.251Z,11.40
2017-11-13T02:01:21.908Z,11.00
2017-11-13T02:03:49.490Z,11.83
2017-11-13T02:06:17.125Z,11.70
2017-11-13T02:08:44.734Z,12.10
2017-11-13T02:11:12.393Z,12.90
2017-11-13T02:13:40.009Z,13.03
2017-11-13T02:16:07.648Z,12.60
2017-11-13T02:18:35.584Z,12.73
2017-11-13T02:21:03.188Z,13.20
2017-11-13T02:23:30.830Z,13.70
2017-11-13T02:25:58.687Z,12.53
2017-11-13T02:28:26.277Z,13.10
2017-11-13T02:30:53.890Z,12.70
2017-11-13T02:33:21.518Z,13.07
2017-11-13T02:35:49.145Z,12.90
2017-11-13T02:38:16.740Z,13.40
2017-11-13T02:40:44.376Z,13.60
2017-11-13T02:43:12.322Z,13.90
2017-11-13T02:45:39.920Z,14.30
2017-11-13T02:48:07.554Z,14.23
2017-11-13T02:50:35.149Z,13.83
2017-11-13T02:53:02.750Z,13.90
2017-11-13T02:55:30.404Z,15.30
2017-11-13T02:57:58.017Z,14.30
2017-11-13T03:00:25.674Z,14.10
2017-11-13T03:02:53.274Z,14.30
2017-11-13T03:05:21.182Z,15.37
2017-11-13T03:07:48.817Z,13.60
2017-11-13T03:10:16.401Z,15.27
2017-11-13T03:12:44.034Z,16.33
2017-11-13T03:15:11.644Z,15.27
2017-11-13T03:17:39.261Z,15.10
2017-11-13T03:20:07.864Z,15.70
2017-11-13T03:22:35.458Z,15.30
2017-11-13T03:25:03.115Z,15.13
2017-11-13T03:27:30.974Z,16.10
2017-11-13T03:29:58.568Z,15.63
2017-11-13T03:32:26.210Z,14.63
2017-11-13T03:34:54.164Z,15.53
2017-11-13T03:37:21.799Z,16.10
2017-11-13T03:39:49.398Z,15.33
2017-11-13T03:42:17.254Z,20.60
2017-11-13T03:44:44.866Z,18.77
2017-11-13T03:47:12.786Z,19.13
2017-11-13T03:49:40.444Z,17.23
2017-11-13T03:52:08.045Z,16.40
2017-11-13T03:54:35.625Z,16.00
2017-11-13T03:57:03.255Z,17.10
2017-11-13T03:59:30.887Z,15.10
2017-11-13T04:01:58.517Z,15.97
2017-11-13T04:04:26.121Z,15.30
2017-11-13T04:06:53.989Z,15.87
2017-11-13T04:09:21.967Z,16.40
2017-11-13T04:11:49.574Z,15.57
2017-11-13T04:14:17.254Z,15.27
2017-11-13T04:16:45.155Z,15.07
2017-11-13T04:19:13.121Z,14.93
2017-11-13T04:21:40.755Z,13.43
2017-11-13T04:24:08.361Z,13.27
2017-11-13T04:26:35.992Z,13.47
2017-11-13T04:29:03.598Z,14.40
2017-11-13T04:31:31.197Z,14.37
2017-11-13T04:33:58.818Z,14.30
2017-11-13T04:36:26.441Z,14.00
2017-11-13T04:38:54.061Z,13.53
2017-11-13T04:41:21.650Z,13.80
2017-11-13T04:43:49.275Z,14.03
2017-11-13T04:46:16.907Z,14.60
2017-11-13T04:48:44.498Z,13.07
2017-11-13T04:51:12.135Z,14.00
2017-11-13T04:53:39.721Z,13.47
2017-11-13T04:56:07.306Z,14.53
2017-11-13T04:58:34.953Z,14.30
2017-11-13T05:01:02.546Z,13.40
2017-11-13T05:03:30.199Z,13.13
2017-11-13T05:05:57.801Z,13.10
2017-11-13T05:08:25.672Z,13.60
2017-11-13T05:10:53.305Z,13.60
2017-11-13T05:13:20.881Z,13.83
2017-11-13T05:15:48.866Z,13.93
2017-11-13T05:18:16.729Z,13.77
2017-11-13T05:20:44.601Z,13.57
2017-11-13T05:23:12.218Z,14.33
2017-11-13T05:25:39.822Z,13.80
2017-11-13T05:28:07.450Z,14.30
2017-11-13T05:30:35.047Z,14.27
2017-11-13T05:33:02.635Z,15.10
2017-11-13T05:35:30.283Z,15.30
2017-11-13T05:37:57.877Z,14.80
2017-11-13T05:40:25.511Z,15.70
2017-11-13T05:42:53.140Z,15.63
2017-11-13T05:45:20.734Z,16.27
2017-11-13T05:47:48.349Z,16.97
2017-11-13T05:50:15.955Z,15.60
2017-11-13T05:52:43.590Z,17.00
2017-11-13T05:55:11.215Z,18.00
2017-11-13T05:57:38.833Z,17.27
2017-11-13T06:00:06.458Z,17.43
2017-11-13T06:02:34.085Z,18.33
2017-11-13T06:05:01.825Z,17.43
2017-11-13T06:07:29.480Z,17.70
2017-11-13T06:09:57.349Z,17.93
2017-11-13T06:12:24.949Z,18.20
2017-11-13T06:14:52.568Z,18.60
2017-11-13T06:17:20.225Z,18.70
2017-11-13T06:19:47.881Z,18.73
2017-11-13T06:22:15.749Z,19.67
2017-11-13T06:24:43.355Z,20.13
2017-11-13T06:27:10.996Z,18.50
2017-11-13T06:29:38.871Z,18.80
2017-11-13T06:32:06.536Z,20.13
2017-11-13T06:34:34.399Z,22.10
2017-11-13T06:37:02.009Z,21.40
2017-11-13T06:39:29.660Z,20.97
2017-11-13T06:41:57.285Z,21.87
2017-11-13T06:44:24.912Z,19.70
2017-11-13T06:46:52.501Z,21.60
2017-11-13T06:49:20.110Z,20.83
2017-11-13T06:51:47.738Z,23.43
2017-11-13T06:54:15.372Z,21.47
2017-11-13T06:56:43.017Z,21.97
2017-11-13T06:59:10.662Z,21.53
2017-11-13T07:01:38.591Z,20.93
2017-11-13T07:04:06.254Z,21.27
2017-11-13T07:06:34.307Z,22.70
2017-11-13T07:09:01.939Z,21.77
2017-11-13T07:11:29.537Z,22.60
2017-11-13T07:13:57.143Z,20.30
2017-11-13T07:18:58.685Z,20.30
2017-11-13T07:21:26.352Z,19.63
2017-11-13T07:23:53.957Z,18.90
2017-11-13T07:26:21.549Z,19.17
2017-11-13T07:28:49.173Z,19.47
2017-11-13T07:31:16.778Z,19.40
2017-11-13T07:33:44.394Z,19.07
2017-11-13T07:36:11.993Z,20.97
2017-11-13T07:38:39.586Z,19.77
2017-11-13T07:41:07.307Z,19.00
2017-11-13T07:43:34.939Z,18.83
2017-11-13T07:46:02.596Z,18.63
2017-11-13T07:48:30.184Z,19.37
2017-11-13T07:50:57.822Z,18.83
2017-11-13T07:53:25.487Z,18.10
2017-11-13T07:55:53.090Z,18.93
2017-11-13T07:58:20.757Z,19.20
2017-11-13T08:00:48.363Z,18.57
2017-11-13T08:03:15.978Z,18.87
2017-11-13T08:05:43.669Z,18.60
2017-11-13T08:08:11.295Z,18.00
2017-11-13T08:10:38.963Z,17.70
2017-11-13T08:13:06.661Z,17.63
2017-11-13T08:15:34.244Z,17.43
2017-11-13T08:18:01.870Z,17.97
2017-11-13T08:20:29.485Z,16.83
2017-11-13T08:22:57.125Z,17.10
2017-11-13T08:25:24.746Z,18.57
2017-11-13T08:27:52.338Z,17.97
2017-11-13T08:30:20.061Z,17.27
2017-11-13T08:32:47.683Z,17.40
2017-11-13T08:35:15.334Z,17.13
2017-11-13T08:37:42.919Z,17.57
2017-11-13T08:40:10.550Z,17.87
2017-11-13T08:42:38.193Z,18.60
2017-11-13T08:45:05.789Z,18.13
2017-11-13T08:47:33.424Z,16.83
2017-11-13T08:50:01.006Z,17.90
2017-11-13T08:52:28.610Z,17.03
2017-11-13T08:54:56.286Z,16.83
2017-11-13T08:57:23.960Z,16.40
2017-11-13T08:59:51.606Z,16.90
2017-11-13T09:02:19.240Z,16.83
2017-11-13T09:04:46.850Z,16.07
2017-11-13T09:07:14.518Z,17.07
2017-11-13T09:09:42.154Z,15.93
2017-11-13T09:12:09.806Z,16.77
2017-11-13T09:14:37.406Z,17.43
2017-11-13T09:17:05.021Z,16.67
2017-11-13T09:19:32.941Z,15.27
2017-11-13T09:22:00.562Z,16.00
2017-11-13T09:24:28.195Z,16.63
2017-11-13T09:26:55.807Z,18.23
2017-11-13T09:29:23.397Z,16.70
2017-11-13T09:31:51.360Z,16.33
2017-11-13T09:34:18.947Z,16.10
2017-11-13T09:36:46.573Z,17.20
2017-11-13T09:39:14.181Z,17.30
2017-11-13T09:41:41.784Z,18.00
2017-11-13T09:44:09.426Z,17.77
2017-11-13T09:46:37.023Z,15.80
2017-11-13T09:49:04.655Z,17.00
2017-11-13T09:51:32.245Z,15.60
2017-11-13T09:53:59.850Z,16.17
2017-11-13T09:56:27.782Z,14.43
2017-11-13T09:58:55.387Z,14.30
2017-11-13T10:01:23.013Z,13.50
2017-11-13T10:03:51.393Z,14.23
2017-11-13T10:06:18.997Z,14.43
2017-11-13T10:08:46.622Z,13.77
2017-11-13T10:11:14.219Z,14.07
2017-11-13T10:13:41.875Z,14.33
2017-11-13T10:16:09.476Z,13.57
2017-11-13T10:18:37.073Z,14.17
2017-11-13T10:21:04.698Z,14.77
2017-11-13T10:23:32.305Z,14.57
2017-11-13T10:25:59.931Z,13.87
2017-11-13T10:28:27.538Z,13.43
2017-11-13T10:30:55.142Z,13.87
2017-11-13T10:33:22.782Z,13.93
2017-11-13T10:35:50.402Z,14.27
2017-11-13T10:38:18.039Z,13.40
2017-11-13T10:40:45.640Z,13.77
2017-11-13T10:43:13.251Z,14.13
2017-11-13T10:45:40.898Z,14.40
2017-11-13T10:48:08.506Z,14.97
2017-11-13T10:50:36.405Z,13.77
2017-11-13T10:53:03.992Z,13.93
2017-11-13T10:55:31.617Z,13.73
2017-11-13T10:57:59.273Z,13.47
2017-11-13T11:00:26.906Z,14.23
2017-11-13T11:02:54.596Z,13.13
2017-11-13T11:05:22.203Z,12.70
2017-11-13T11:07:49.798Z,13.57
2017-11-13T11:10:17.491Z,13.17
2017-11-13T11:12:45.098Z,13.60
2017-11-13T11:15:23.447Z,12.60
2017-11-13T11:17:55.000Z,13.17
2017-11-13T11:20:24.456Z,14.17
2017-11-13T11:23:02.013Z,12.03
2017-11-13T11:25:29.706Z,12.00
2017-11-13T11:27:57.372Z,13.50
2017-11-13T11:30:40.671Z,15.60
2017-11-13T11:33:10.824Z,12.57
2017-11-13T11:35:41.430Z,12.47
2017-11-13T11:38:09.046Z,11.93
2017-11-13T11:40:40.215Z,12.57
2017-11-13T11:43:07.881Z,13.20
2017-11-13T11:45:35.586Z,12.30
2017-11-13T11:48:19.021Z,11.90
2017-11-13T11:50:46.647Z,12.13
2017-11-13T11:53:14.281Z,11.10
2017-11-13T11:55:45.555Z,12.00
2017-11-13T11:58:13.379Z,12.10
2017-11-13T12:00:41.210Z,11.10
2017-11-13T12:03:08.852Z,11.30
2017-11-13T12:05:36.523Z,12.50
2017-11-13T12:08:04.137Z,11.97
2017-11-13T12:10:31.749Z,11.67
2017-11-13T12:12:59.410Z,11.93
2017-11-13T12:15:27.003Z,11.83
2017-11-13T12:17:54.654Z,11.80
2017-11-13T12:20:22.618Z,11.53
2017-11-13T12:22:50.210Z,11.13
2017-11-13T12:25:17.844Z,11.10
2017-11-13T12:27:45.792Z,11.63
2017-11-13T12:30:13.434Z,12.10
2017-11-13T12:32:41.038Z,11.60
2017-11-13T12:35:08.999Z,11.30
2017-11-13T12:37:36.634Z,10.87
2017-11-13T12:40:04.272Z,10.50
2017-11-13T12:42:31.915Z,10.50
2017-11-13T12:44:59.946Z,10.37
2017-11-13T12:47:27.549Z,11.30
2017-11-13T12:49:55.193Z,11.23
2017-11-13T12:52:23.029Z,11.90
2017-11-13T12:54:56.265Z,11.37
2017-11-13T12:57:27.342Z,11.00
2017-11-13T12:59:55.180Z,11.17
2017-11-13T13:02:23.788Z,10.90
2017-11-13T13:04:53.332Z,10.50
2017-11-13T13:07:24.407Z,10.70
2017-11-13T13:09:54.417Z,10.90
2017-11-13T13:12:27.850Z,11.00
2017-11-13T13:15:02.942Z,10.13
2017-11-13T13:17:36.723Z,11.00
2017-11-13T13:20:08.392Z,10.53
2017-11-13T13:22:38.129Z,10.90
2017-11-13T13:25:08.387Z,10.33
2017-11-13T13:27:36.024Z,10.00
2017-11-13T13:30:05.179Z,10.33
2017-11-13T13:32:35.479Z,10.70
2017-11-13T13:35:09.195Z,11.60
2017-11-13T13:37:38.262Z,10.30
2017-11-13T13:40:07.913Z,10.10
2017-11-13T13:42:36.870Z,10.73
2017-11-13T13:45:07.206Z,10.37
2017-11-13T13:47:36.602Z,10.40
2017-11-13T13:50:05.992Z,11.17
2017-11-13T13:52:35.671Z,10.73
2017-11-13T13:55:09.832Z,10.50
2017-11-13T13:57:39.114Z,10.30
2017-11-13T14:00:11.097Z,10.93
2017-11-13T14:02:41.943Z,9.80
2017-11-13T14:05:10.264Z,10.60
2017-11-13T14:07:42.966Z,10.67
2017-11-13T14:10:10.890Z,10.37
2017-11-13T14:12:39.546Z,10.77
2017-11-13T14:15:15.037Z,10.00
2017-11-13T14:17:48.154Z,9.83
2017-11-13T14:20:16.437Z,9.70
2017-11-13T14:22:44.419Z,10.60
2017-11-13T14:25:13.321Z,10.17
2017-11-13T14:27:43.661Z,10.30
2017-11-13T14:30:12.201Z,9.97
2017-11-13T14:32:43.260Z,10.33
2017-11-13T14:35:19.964Z,10.07
2017-11-13T14:37:55.280Z,10.23
2017-11-13T14:40:26.156Z,10.00
2017-11-13T14:42:54.112Z,10.50
2017-11-13T14:45:27.943Z,11.17
2017-11-13T14:48:01.696Z,10.77
2017-11-13T14:50:30.749Z,10.50
2017-11-13T14:53:01.318Z,10.00
2017-11-13T14:55:30.294Z,9.73
2017-11-13T14:58:00.741Z,9.97
2017-11-13T15:00:34.072Z,10.00
2017-11-13T15:03:02.442Z,10.23
2017-11-13T15:05:33.569Z,10.03
2017-11-13T15:08:01.883Z,10.20
2017-11-13T15:10:30.237Z,10.60
2017-11-13T15:12:59.849Z,9.67
2017-11-13T15:15:30.167Z,10.30
2017-11-13T15:17:58.658Z,10.40
2017-11-13T15:20:30.175Z,9.70
2017-11-13T15:22:58.354Z,10.33
2017-11-13T15:25:32.134Z,10.40
2017-11-13T15:28:05.551Z,9.83
2017-11-13T15:30:42.036Z,10.30
2017-11-13T15:33:24.360Z,9.83
2017-11-13T15:36:02.884Z,9.70
2017-11-13T15:38:32.728Z,10.00
2017-11-13T15:41:06.673Z,9.90
2017-11-13T15:43:41.832Z,9.63
2017-11-13T15:46:14.817Z,10.00
2017-11-13T15:48:56.186Z,9.63
2017-11-13T15:51:25.508Z,10.13
2017-11-13T15:53:54.001Z,9.90
2017-11-13T15:56:23.622Z,9.63
2017-11-13T15:58:56.390Z,9.53
2017-11-13T16:01:26.237Z,9.70
2017-11-13T16:03:56.329Z,10.37
2017-11-13T16:06:27.965Z,9.87
2017-11-13T16:09:02.447Z,9.20
2017-11-13T16:11:34.257Z,9.97
2017-11-13T16:14:10.429Z,9.83
2017-11-13T16:16:39.567Z,10.37
2017-11-13T16:19:07.604Z,9.80
2017-11-13T16:21:37.682Z,10.00
2017-11-13T16:24:08.784Z,9.57
2017-11-13T16:26:36.769Z,11.47
2017-11-13T16:29:05.475Z,11.10
2017-11-13T16:31:40.020Z,13.40
2017-11-13T16:34:10.566Z,13.43
2017-11-13T16:36:43.362Z,10.37
2017-11-13T16:39:11.715Z,10.90
2017-11-13T16:41:39.453Z,10.30
2017-11-13T16:44:07.358Z,10.40
2017-11-13T16:46:36.428Z,11.73
2017-11-13T16:49:06.812Z,11.87
2017-11-13T16:51:34.833Z,11.40
2017-11-13T16:54:02.793Z,11.27
2017-11-13T16:56:30.423Z,11.13
2017-11-13T16:59:01.012Z,11.23
2017-11-13T17:01:30.557Z,11.50
2017-11-13T17:03:59.452Z,10.93
2017-11-13T17:06:27.638Z,10.73
2017-11-13T17:08:57.603Z,11.20
2017-11-13T17:11:28.009Z,11.60
2017-11-13T17:13:56.218Z,11.00
2017-11-13T17:16:24.164Z,11.23
2017-11-13T17:18:51.830Z,11.87
2017-11-13T17:21:19.492Z,11.17
2017-11-13T17:23:47.473Z,11.83
2017-11-13T17:26:15.279Z,11.57
2017-11-13T17:28:42.891Z,10.80
2017-11-13T17:31:10.544Z,11.50
2017-11-13T17:33:38.235Z,12.10
2017-11-13T17:36:05.975Z,11.50
2017-11-13T17:38:33.700Z,13.83
2017-11-13T17:41:01.434Z,12.00
2017-11-13T17:43:29.163Z,11.53
2017-11-13T17:45:56.872Z,11.13
2017-11-13T17:48:24.810Z,10.93
2017-11-13T17:50:53.286Z,11.40
2017-11-13T17:53:21.380Z,11.40
2017-11-13T17:55:49.066Z,10.97
2017-11-13T17:58:17.156Z,11.10
2017-11-13T18:00:44.991Z,11.10
2017-11-13T18:03:12.663Z,11.00
2017-11-13T18:05:40.302Z,10.80
2017-11-13T18:08:07.977Z,10.40
2017-11-13T18:10:35.962Z,10.77
2017-11-13T18:13:04.111Z,11.43
2017-11-13T18:15:31.997Z,10.20
2017-11-13T18:17:59.636Z,10.40
2017-11-13T18:20:28.200Z,10.67
2017-11-13T18:22:56.481Z,10.07
2017-11-13T18:25:24.447Z,10.83
2017-11-13T18:27:52.102Z,10.17
2017-11-13T18:30:19.751Z,9.90
2017-11-13T18:32:47.451Z,10.70
2017-11-13T18:35:15.462Z,10.60
2017-11-13T18:37:43.101Z,10.50
2017-11-13T18:40:10.849Z,10.63
2017-11-13T18:42:38.492Z,10.33
2017-11-13T18:45:06.148Z,10.47
2017-11-13T18:47:33.847Z,10.43
2017-11-13T18:50:01.464Z,9.90
2017-11-13T18:52:29.280Z,10.57
2017-11-13T18:54:56.884Z,9.93
2017-11-13T18:57:24.483Z,10.70
2017-11-13T18:59:52.272Z,10.87
2017-11-13T19:02:19.911Z,10.80
2017-11-13T19:04:48.058Z,10.70
2017-11-13T19:07:15.695Z,10.50
2017-11-13T19:09:43.340Z,10.50
2017-11-13T19:12:11.563Z,10.60
2017-11-13T19:14:39.657Z,10.73
2017-11-13T19:17:07.666Z,11.27
2017-11-13T19:19:36.896Z,11.23
2017-11-13T19:22:04.698Z,10.70
2017-11-13T19:24:32.665Z,11.03
2017-11-13T19:27:00.277Z,11.13
2017-11-13T19:29:27.909Z,11.33
2017-11-13T19:31:55.536Z,10.70
2017-11-13T19:34:23.187Z,11.00
2017-11-13T19:36:51.104Z,11.50
2017-11-13T19:39:18.738Z,11.07
2017-11-13T19:41:46.402Z,10.83
2017-11-13T19:44:14.064Z,11.10
2017-11-13T19:46:41.690Z,11.10
2017-11-13T19:49:09.306Z,10.77
2017-11-13T19:51:37.573Z,10.67
2017-11-13T19:54:05.164Z,11.70
2017-11-13T19:56:33.214Z,11.13
2017-11-13T19:59:00.839Z,11.17
2017-11-13T20:01:28.442Z,11.00
2017-11-13T20:03:56.401Z,11.27
2017-11-13T20:06:24.586Z,11.80
2017-11-13T20:08:52.255Z,11.20
2017-11-13T20:11:19.910Z,11.30
2017-11-13T20:13:47.510Z,12.30
2017-11-13T20:16:15.757Z,11.70
2017-11-13T20:18:43.358Z,12.07
2017-11-13T20:21:10.958Z,12.00
2017-11-13T20:23:38.597Z,10.83
2017-11-13T20:26:06.293Z,11.90
2017-11-13T20:28:33.930Z,11.67
2017-11-13T20:31:01.572Z,11.80
2017-11-13T20:33:29.180Z,11.80
2017-11-13T20:35:56.807Z,11.70
2017-11-13T20:38:24.393Z,11.37
2017-11-13T20:40:52.026Z,11.80
2017-11-13T20:43:21.324Z,11.90
2017-11-13T20:45:48.918Z,11.70
2017-11-13T20:48:16.552Z,11.63
2017-11-13T20:50:47.463Z,11.63
2017-11-13T20:53:16.075Z,12.00
2017-11-13T20:55:43.742Z,11.90
2017-11-13T20:58:11.643Z,12.67
2017-11-13T21:00:39.289Z,11.97
2017-11-13T21:03:06.973Z,11.53
2017-11-13T21:05:34.645Z,11.47
2017-11-13T21:08:02.271Z,11.40
2017-11-13T21:10:29.886Z,11.70
2017-11-13T21:12:57.607Z,11.83
2017-11-13T21:15:25.268Z,11.90
2017-11-13T21:17:53.151Z,11.60
2017-11-13T21:20:20.755Z,11.60
2017-11-13T21:22:48.371Z,11.20
2017-11-13T21:25:16.006Z,12.07
2017-11-13T21:27:43.602Z,11.53
2017-11-13T21:30:11.271Z,11.90
2017-11-13T21:32:38.897Z,11.90
2017-11-13T21:35:06.514Z,13.57
2017-11-13T21:37:34.180Z,11.33
2017-11-13T21:40:02.664Z,11.17
2017-11-13T21:42:30.294Z,11.33
2017-11-13T21:44:57.883Z,10.93
2017-11-13T21:47:25.497Z,11.20
2017-11-13T21:49:53.123Z,11.10
2017-11-13T21:52:20.741Z,11.13
2017-11-13T21:54:48.415Z,11.77
2017-11-13T21:57:16.282Z,11.67
2017-11-13T21:59:43.928Z,11.50
2017-11-13T22:02:11.802Z,11.03
2017-11-13T22:04:39.398Z,10.93
2017-11-13T22:07:07.052Z,11.20
2017-11-13T22:09:34.646Z,11.50
2017-11-13T22:12:02.288Z,11.77
2017-11-13T22:14:29.938Z,10.93
2017-11-13T22:16:57.563Z,11.50
2017-11-13T22:19:25.189Z,11.00
2017-11-13T22:21:53.114Z,10.73
2017-11-13T22:24:20.701Z,11.20
2017-11-13T22:26:48.378Z,11.70
2017-11-13T22:29:16.329Z,12.17
2017-11-13T22:31:43.997Z,11.13
2017-11-13T22:34:11.618Z,11.40
2017-11-13T22:36:39.209Z,12.00
2017-11-13T22:39:06.829Z,10.80
2017-11-13T22:41:34.418Z,10.90
2017-11-13T22:44:02.131Z,11.70
2017-11-13T22:46:29.734Z,12.90
2017-11-13T22:48:57.346Z,12.53
2017-11-13T22:51:24.967Z,11.27
2017-11-13T22:53:52.565Z,11.50
2017-11-13T22:56:20.204Z,11.50
2017-11-13T22:58:47.801Z,11.20
2017-11-13T23:01:15.418Z,12.30
2017-11-13T23:03:43.036Z,10.30
2017-11-13T23:06:10.653Z,10.80
2017-11-13T23:08:38.290Z,11.00
2017-11-13T23:11:05.901Z,10.67
2017-11-13T23:13:33.505Z,11.30
2017-11-13T23:16:01.134Z,10.53
2017-11-13T23:18:29.060Z,10.30
2017-11-13T23:20:56.705Z,10.40
2017-11-13T23:23:24.610Z,10.80
2017-11-13T23:25:52.202Z,10.73
2017-11-13T23:28:19.836Z,11.00
2017-11-13T23:30:47.422Z,11.13
2017-11-13T23:33:15.045Z,10.30
2017-11-13T23:35:42.628Z,10.33
2017-11-13T23:38:10.277Z,10.40
2017-11-13T23:40:37.893Z,10.40
2017-11-13T23:43:05.478Z,10.77
2017-11-13T23:45:33.137Z,10.80
2017-11-13T23:48:00.742Z,10.60
2017-11-13T23:50:28.337Z,10.80
2017-11-13T23:52:55.977Z,10.40
2017-11-13T23:55:23.567Z,10.30
2017-11-13T23:57:51.178Z,10.60
